Time;durP1;ratioP1;P1;durP2;ratioP2;P2;SDS_P1;SDS_P2;PMS_P1;PMS_P2;Temp;Humidity;BMP_temperature;BMP_pressure;BME280_temperature;BME280_humidity;BME280_pressure;Samples;Min_cycle;Max_cycle;Signal;HPM_P1;HPM_P2
2021/04/25 00:00:35;;;;;;;0.75;0.20;;;;;;;4.06;50.98;102317.09;4827775;29;20034;-78
2021/04/25 00:03:01;;;;;;;0.57;0.30;;;;;;;4.15;51.40;102336.84;4809831;29;20049;-79
2021/04/25 00:05:26;;;;;;;0.77;0.20;;;;;;;4.08;51.29;102339.13;4828262;29;20060;-79
2021/04/25 00:07:54;;;;;;;1.23;0.20;;;;;;;3.87;51.09;102314.16;4827061;29;20062;-79
2021/04/25 00:10:20;;;;;;;1.75;0.30;;;;;;;4.02;51.52;102331.63;4825127;29;20042;-79
2021/04/25 00:12:46;;;;;;;1.45;0.22;;;;;;;3.94;51.26;102342.00;4799220;29;20037;-79
2021/04/25 00:15:32;;;;;;;0.30;0.10;;;;;;;3.73;50.77;102316.06;4828286;29;20053;-79
2021/04/25 00:17:57;;;;;;;1.10;0.20;;;;;;;3.85;51.20;102332.06;4845063;29;20042;-79
2021/04/25 00:20:23;;;;;;;1.20;0.20;;;;;;;3.91;51.70;102347.59;4812777;29;20105;-80
2021/04/25 00:22:50;;;;;;;0.30;0.10;;;;;;;3.66;51.55;102320.16;4801905;29;20376;-79
2021/04/25 00:25:18;;;;;;;0.80;0.22;;;;;;;3.82;50.02;102340.28;4814061;29;20088;-80
2021/04/25 00:27:44;;;;;;;0.47;0.20;;;;;;;3.76;50.19;102341.59;4818380;29;20030;-79
2021/04/25 00:30:14;;;;;;;0.90;0.20;;;;;;;3.22;50.65;102247.22;4826076;29;20034;-80
2021/04/25 00:32:39;;;;;;;0.77;0.20;;;;;;;3.73;50.86;102348.00;4822353;29;20068;-79
2021/04/25 00:35:06;;;;;;;0.20;0.10;;;;;;;3.62;50.34;102332.00;4803250;29;20457;-79
2021/04/25 00:37:32;;;;;;;1.08;0.30;;;;;;;3.50;50.55;102314.31;4810959;29;20368;-79
2021/04/25 00:39:59;;;;;;;0.85;0.10;;;;;;;3.45;50.50;102348.41;4828499;29;20031;-79
2021/04/25 00:42:24;;;;;;;0.55;0.30;;;;;;;3.51;50.71;102353.28;4805742;29;20030;-78
2021/04/25 00:44:51;;;;;;;1.00;0.20;;;;;;;2.52;50.91;102186.00;4845038;29;20041;-79
2021/04/25 00:47:17;;;;;;;0.47;0.20;;;;;;;3.34;50.69;102332.38;4829882;29;20658;-79
2021/04/25 00:49:42;;;;;;;0.38;0.13;;;;;;;3.50;51.30;102355.06;4828036;29;20034;-79
2021/04/25 00:52:08;;;;;;;0.77;0.20;;;;;;;3.45;51.24;102349.25;4815027;29;20038;-80
2021/04/25 00:54:36;;;;;;;0.55;0.20;;;;;;;3.18;50.49;102316.69;4828390;29;20475;-79
2021/04/25 00:57:02;;;;;;;0.30;0.10;;;;;;;3.13;49.88;102306.41;4829453;29;20050;-79
2021/04/25 00:59:27;;;;;;;1.95;0.20;;;;;;;3.29;50.51;102344.22;4814376;29;20114;-79
2021/04/25 01:01:53;;;;;;;0.55;0.20;;;;;;;3.20;50.83;102360.84;4821726;29;20072;-79
2021/04/25 01:04:19;;;;;;;0.63;0.17;;;;;;;3.19;49.93;102361.81;4846775;29;20026;-79
2021/04/25 01:06:44;;;;;;;1.08;0.17;;;;;;;3.14;50.56;102350.66;4799764;29;20585;-78
2021/04/25 01:09:10;;;;;;;1.15;0.30;;;;;;;3.19;50.19;102367.16;4812582;29;20030;-79
2021/04/25 01:11:35;;;;;;;0.30;0.17;;;;;;;2.97;51.00;102341.25;4815434;29;20067;-79
2021/04/25 01:14:01;;;;;;;0.10;0.10;;;;;;;2.94;50.41;102368.06;4827283;29;20138;-79
2021/04/25 01:16:28;;;;;;;0.63;0.35;;;;;;;2.90;50.40;102365.75;4831298;29;20080;-78
2021/04/25 01:18:54;;;;;;;0.20;0.10;;;;;;;2.90;50.79;102353.31;4814061;29;20052;-79
2021/04/25 01:21:19;;;;;;;0.20;0.17;;;;;;;2.78;52.23;102360.38;4843294;29;20057;-79
2021/04/25 01:23:45;;;;;;;0.57;0.20;;;;;;;2.66;51.11;102352.41;4829031;29;20084;-79
2021/04/25 01:26:10;;;;;;;0.95;0.20;;;;;;;2.85;51.07;102359.91;4845645;29;20086;-78
2021/04/25 01:28:37;;;;;;;0.55;0.13;;;;;;;2.85;51.73;102366.09;4809942;29;20032;-79
2021/04/25 01:31:04;;;;;;;1.23;0.20;;;;;;;2.86;51.47;102364.28;4812296;29;20380;-79
2021/04/25 01:33:33;;;;;;;0.65;0.20;;;;;;;2.66;52.50;102334.66;4827879;29;20369;-79
2021/04/25 01:35:58;;;;;;;0.77;0.20;;;;;;;2.87;53.25;102363.31;4815177;29;20050;-78
2021/04/25 01:38:24;;;;;;;0.70;0.10;;;;;;;2.63;53.57;102326.91;4828636;29;20394;-79
2021/04/25 01:40:49;;;;;;;0.55;0.10;;;;;;;2.60;52.71;102348.38;4843267;29;20037;-79
2021/04/25 01:43:15;;;;;;;0.88;0.10;;;;;;;2.71;53.80;102360.91;4815250;29;20095;-79
2021/04/25 01:45:40;;;;;;;0.45;0.10;;;;;;;2.78;53.16;102363.03;4826540;29;20145;-78
2021/04/25 01:48:08;;;;;;;0.55;0.25;;;;;;;2.61;53.34;102358.03;4814870;29;20026;-79
2021/04/25 01:50:34;;;;;;;0.20;0.00;;;;;;;2.58;53.58;102363.56;4813501;29;20045;-78
2021/04/25 01:53:00;;;;;;;0.60;0.20;;;;;;;1.99;53.11;102281.84;4827925;29;20048;-78
2021/04/25 01:55:28;;;;;;;1.17;0.20;;;;;;;2.55;53.39;102374.41;4827884;29;20517;-79
2021/04/25 01:57:54;;;;;;;0.73;0.30;;;;;;;2.20;53.28;102339.72;4827895;29;20046;-79
2021/04/25 02:00:32;;;;;;;0.45;0.10;;;;;;;2.24;52.74;102331.41;4809621;29;20053;-79
2021/04/25 02:02:59;;;;;;;0.70;0.20;;;;;;;2.34;53.26;102374.97;4828935;29;20026;-79
2021/04/25 02:05:25;;;;;;;0.25;0.15;;;;;;;2.32;53.72;102374.25;4827665;29;20029;-79
2021/04/25 02:07:51;;;;;;;2.75;0.28;;;;;;;2.21;53.07;102365.31;4843821;29;20030;-79
2021/04/25 02:10:18;;;;;;;4.47;0.32;;;;;;;2.17;54.13;102367.34;4827977;29;20049;-78
2021/04/25 02:12:44;;;;;;;0.28;0.10;;;;;;;2.12;53.78;102382.75;4842752;29;20026;-78
2021/04/25 02:15:11;;;;;;;0.60;0.20;;;;;;;2.04;53.54;102354.03;4810665;29;20026;-78
2021/04/25 02:17:37;;;;;;;0.52;0.10;;;;;;;2.16;52.75;102389.53;4810082;29;20178;-78
2021/04/25 02:20:05;;;;;;;1.65;0.30;;;;;;;2.02;52.86;102352.44;4808890;29;20038;-78
2021/04/25 02:22:31;;;;;;;1.98;0.43;;;;;;;2.19;53.08;102368.09;4825645;29;20039;-79
2021/04/25 02:24:57;;;;;;;1.23;0.20;;;;;;;1.91;52.53;102353.19;4812571;29;20034;-78
2021/04/25 02:27:22;;;;;;;0.88;0.20;;;;;;;2.03;52.55;102354.16;4808703;29;20106;-78
2021/04/25 02:29:48;;;;;;;0.32;0.10;;;;;;;1.79;53.35;102316.88;4823572;29;20041;-78
2021/04/25 02:32:13;;;;;;;0.47;0.20;;;;;;;1.83;54.06;102351.06;4812520;29;20033;-78
2021/04/25 02:34:39;;;;;;;0.95;0.10;;;;;;;1.99;53.50;102376.56;4825772;29;20112;-78
2021/04/25 02:37:04;;;;;;;1.15;0.20;;;;;;;1.93;54.32;102371.69;4827965;29;20117;-78
2021/04/25 02:39:30;;;;;;;1.65;0.52;;;;;;;1.99;54.06;102377.44;4826067;29;20030;-78
2021/04/25 02:41:55;;;;;;;0.10;0.08;;;;;;;1.53;54.83;102321.31;4828125;29;20469;-78
2021/04/25 02:44:21;;;;;;;0.75;0.15;;;;;;;1.78;54.56;102363.78;4825387;29;20053;-78
2021/04/25 02:46:46;;;;;;;0.45;0.10;;;;;;;1.81;55.54;102376.84;4828626;29;20098;-78
2021/04/25 02:49:12;;;;;;;0.68;0.20;;;;;;;1.75;55.40;102366.63;4827258;29;20416;-77
2021/04/25 02:51:38;;;;;;;0.70;0.30;;;;;;;1.76;54.77;102372.81;4794350;29;20058;-78
2021/04/25 02:54:04;;;;;;;0.95;0.20;;;;;;;1.82;54.54;102372.38;4826663;29;20094;-77
2021/04/25 02:56:29;;;;;;;0.38;0.13;;;;;;;1.75;54.38;102355.19;4826831;29;20050;-78
2021/04/25 02:58:55;;;;;;;0.40;0.10;;;;;;;1.67;54.84;102361.00;4824855;29;20045;-78
2021/04/25 03:01:20;;;;;;;0.50;0.20;;;;;;;1.76;54.59;102378.13;4828473;29;20346;-79
2021/04/25 03:03:47;;;;;;;0.75;0.10;;;;;;;1.61;55.10;102356.97;4828156;29;20350;-78
2021/04/25 03:06:13;;;;;;;0.75;0.30;;;;;;;1.58;54.93;102359.81;4828472;29;20069;-79
2021/04/25 03:08:38;;;;;;;2.13;0.20;;;;;;;1.58;54.98;102354.50;4825541;29;20449;-78
2021/04/25 03:11:04;;;;;;;1.48;0.20;;;;;;;1.73;55.32;102370.38;4812987;29;20098;-79
2021/04/25 03:13:30;;;;;;;0.40;0.20;;;;;;;1.45;55.71;102345.66;4816823;29;20049;-79
2021/04/25 03:15:56;;;;;;;0.47;0.17;;;;;;;1.62;55.80;102390.53;4826758;29;20038;-78
2021/04/25 03:18:23;;;;;;;0.95;0.20;;;;;;;0.82;56.29;102264.13;4842650;29;20104;-78
2021/04/25 03:20:48;;;;;;;0.60;0.13;;;;;;;1.50;56.26;102378.06;4842295;29;20537;-78
2021/04/25 03:23:14;;;;;;;1.50;0.20;;;;;;;1.62;56.62;102389.66;4812033;29;20046;-78
2021/04/25 03:25:40;;;;;;;0.55;0.20;;;;;;;1.52;56.25;102369.97;4824006;29;20338;-78
2021/04/25 03:28:06;;;;;;;0.47;0.13;;;;;;;1.55;56.33;102389.19;4824741;29;20037;-78
2021/04/25 03:30:33;;;;;;;0.52;0.20;;;;;;;1.57;56.94;102399.72;4827214;29;20151;-78
2021/04/25 03:32:58;;;;;;;0.88;0.20;;;;;;;1.52;56.54;102400.00;4826180;29;20048;-77
2021/04/25 03:35:24;;;;;;;2.60;0.28;;;;;;;1.44;56.90;102402.34;4825911;29;20045;-77
2021/04/25 03:37:50;;;;;;;0.75;0.28;;;;;;;1.45;57.40;102397.88;4826593;29;20365;-78
2021/04/25 03:40:18;;;;;;;0.50;0.20;;;;;;;1.51;56.93;102400.13;4823474;29;20026;-78
2021/04/25 03:42:54;;;;;;;0.80;0.20;;;;;;;1.51;56.82;102390.34;4841682;29;20026;-78
2021/04/25 03:45:21;;;;;;;0.95;0.20;;;;;;;1.49;56.87;102402.00;4811803;29;20078;-78
2021/04/25 03:47:49;;;;;;;0.40;0.10;;;;;;;1.25;56.42;102365.53;4827918;29;20465;-78
2021/04/25 03:50:17;;;;;;;0.68;0.03;;;;;;;1.63;56.21;102400.16;4831164;29;20044;-79
2021/04/25 03:52:44;;;;;;;2.00;0.20;;;;;;;1.24;56.21;102360.34;4844975;29;20079;-78
2021/04/25 03:55:12;;;;;;;0.47;0.20;;;;;;;1.33;55.83;102395.09;4829531;29;20034;-78
2021/04/25 03:57:37;;;;;;;0.40;0.17;;;;;;;1.20;56.77;102374.78;4830315;29;20422;-79
2021/04/25 04:00:09;;;;;;;0.55;0.10;;;;;;;1.52;56.00;102407.13;4847634;29;20050;-79
2021/04/25 04:02:35;;;;;;;0.40;0.17;;;;;;;1.93;54.83;102358.41;4816191;29;20539;-79
2021/04/25 04:05:00;;;;;;;0.73;0.17;;;;;;;2.57;53.46;102404.41;4830367;29;20034;-80
2021/04/25 04:07:26;;;;;;;1.35;0.20;;;;;;;2.70;52.47;102405.25;4833908;29;20033;-78
2021/04/25 04:09:52;;;;;;;0.65;0.13;;;;;;;2.97;52.18;102398.91;4836728;29;20042;-80
2021/04/25 04:12:18;;;;;;;1.40;0.30;;;;;;;3.25;51.37;102424.38;4820422;29;20049;-80
2021/04/25 04:14:44;;;;;;;0.40;0.10;;;;;;;3.15;50.93;102408.22;4823594;29;20098;-80
2021/04/25 04:17:11;;;;;;;2.28;0.20;;;;;;;3.27;51.06;102422.44;4840334;29;20031;-79
2021/04/25 04:19:36;;;;;;;1.23;0.30;;;;;;;3.62;50.73;102414.53;4823326;29;20038;-80
2021/04/25 04:22:03;;;;;;;0.40;0.10;;;;;;;3.72;50.18;102409.38;4821437;29;20049;-80
2021/04/25 04:24:29;;;;;;;0.60;0.20;;;;;;;3.65;50.82;102403.66;4821486;29;20113;-81
2021/04/25 04:26:55;;;;;;;0.90;0.20;;;;;;;3.41;49.97;102394.81;4821468;29;20030;-79
2021/04/25 04:29:21;;;;;;;1.83;0.20;;;;;;;3.47;50.25;102402.34;4815756;29;20030;-79
2021/04/25 04:31:47;;;;;;;0.35;0.10;;;;;;;3.58;49.46;102430.84;4813410;29;20468;-79
2021/04/25 04:34:13;;;;;;;1.65;0.20;;;;;;;3.48;49.50;102382.78;4826658;29;20038;-80
2021/04/25 04:36:38;;;;;;;0.22;0.10;;;;;;;3.65;49.90;102432.09;4829060;29;20041;-78
2021/04/25 04:39:04;;;;;;;1.55;0.35;;;;;;;3.76;49.67;102430.31;4824793;29;20358;-80
2021/04/25 04:41:29;;;;;;;2.65;0.40;;;;;;;3.94;49.61;102424.56;4844318;29;20131;-80
2021/04/25 04:43:55;;;;;;;0.68;0.22;;;;;;;3.87;49.61;102386.03;4830249;29;20023;-81
2021/04/25 04:46:21;;;;;;;1.05;0.20;;;;;;;3.90;49.58;102436.41;4822309;29;20033;-80
2021/04/25 04:48:46;;;;;;;0.90;0.20;;;;;;;4.22;48.91;102420.66;4830089;29;20132;-80
2021/04/25 04:51:12;;;;;;;0.73;0.20;;;;;;;3.99;48.76;102423.25;4837173;29;20034;-80
2021/04/25 04:53:38;;;;;;;1.42;0.40;;;;;;;4.18;49.45;102419.19;4846435;29;20030;-81
2021/04/25 04:56:04;;;;;;;0.90;0.20;;;;;;;4.78;48.09;102419.88;4851612;29;20025;-80
2021/04/25 04:58:30;;;;;;;0.38;0.20;;;;;;;4.57;47.89;102415.25;4835279;29;20050;-80
2021/04/25 05:00:55;;;;;;;0.47;0.17;;;;;;;4.44;48.19;102359.41;4839307;29;20043;-81
2021/04/25 05:03:21;;;;;;;1.05;0.20;;;;;;;4.13;47.94;102302.31;4982850;24;20054;-82
2021/04/25 05:05:46;;;;;;;2.05;0.15;;;;;;;3.96;47.63;102310.78;4849401;29;20045;-81
2021/04/25 05:08:12;;;;;;;1.50;0.25;;;;;;;2.91;48.54;102149.44;4843586;29;20083;-81
2021/04/25 05:10:39;;;;;;;1.92;0.20;;;;;;;4.09;47.55;102287.56;4828815;29;20027;-81
2021/04/25 05:13:10;;;;;;;1.13;0.20;;;;;;;2.83;48.16;102103.00;4844457;29;20038;-81
2021/04/25 05:15:40;;;;;;;0.20;0.10;;;;;;;2.47;48.34;102088.03;4847257;29;20090;-82
2021/04/25 05:25:51;;;;;;;0.70;0.10;;;;;;;1.13;53.17;102147.16;5769962;24;20025;-80
2021/04/25 05:33:28;;;;;;;2.45;0.17;;;;;;;1.92;52.13;102274.41;5764393;24;20006;-78
2021/04/25 05:41:04;;;;;;;0.77;0.17;;;;;;;1.49;52.81;102245.50;5089200;24;20029;-82
2021/04/25 05:43:30;;;;;;;2.58;0.40;;;;;;;1.78;51.99;102257.63;4831921;29;20041;-81
2021/04/25 05:45:56;;;;;;;0.50;0.20;;;;;;;1.56;52.42;102205.22;4999185;23;20138;-79
2021/04/25 05:48:22;;;;;;;1.38;0.30;;;;;;;0.66;52.66;102092.94;4813750;29;20058;-82
2021/04/25 05:50:48;;;;;;;0.17;0.10;;;;;;;3.00;52.05;102434.09;4804698;29;20089;-79
2021/04/25 05:53:13;;;;;;;0.90;0.30;;;;;;;2.49;50.43;102327.06;4783794;29;20034;-81
2021/04/25 05:55:42;;;;;;;1.20;0.15;;;;;;;2.59;50.88;102365.28;4822816;29;20043;-81
2021/04/25 05:58:07;;;;;;;1.00;0.22;;;;;;;2.68;50.72;102415.16;4793709;29;20031;-81
2021/04/25 06:00:33;;;;;;;0.90;0.30;;;;;;;2.89;50.98;102434.03;4820503;29;20075;-82
2021/04/25 06:02:59;;;;;;;2.85;0.30;;;;;;;2.33;51.86;102349.38;4799161;29;20046;-81
2021/04/25 06:05:27;;;;;;;1.08;0.30;;;;;;;3.29;50.31;102424.03;4821135;29;20071;-80
2021/04/25 06:10:45;;;;;;;1.30;0.30;;;;;;;2.41;49.97;102322.25;5595506;24;20033;31
2021/04/25 06:13:12;;;;;;;1.05;0.20;;;;;;;2.91;50.06;102415.31;4788022;29;20058;-86
2021/04/25 06:18:12;;;;;;;0.60;0.15;;;;;;;1.59;50.34;102153.72;4882875;24;20062;-82
2021/04/25 06:20:38;;;;;;;0.63;0.10;;;;;;;2.89;49.79;102366.72;4819317;29;20059;-81
2021/04/25 06:23:04;;;;;;;1.15;0.30;;;;;;;1.57;50.16;102147.69;4845583;29;20058;-82
2021/04/25 06:25:31;;;;;;;1.25;0.30;;;;;;;1.62;49.48;102156.16;4948657;24;20058;-82
2021/04/25 07:12:42;;;;;;;0.88;0.30;;;;;;;2.16;47.56;102056.78;4841620;24;20262;-82
2021/04/25 07:28:44;;;;;;;0.60;0.20;;;;;;;2.16;46.51;102073.53;5713849;24;20050;-82
2021/04/25 10:21:54;;;;;;;1.48;0.50;;;;;;;6.62;34.36;102399.22;4240169;24;20246;-84
2021/04/25 10:36:58;;;;;;;0.45;0.25;;;;;;;6.35;34.71;102384.59;5665555;24;19927;31
2021/04/25 10:42:19;;;;;;;0.82;0.30;;;;;;;6.68;34.46;102386.16;5040478;24;20038;-81
2021/04/25 10:47:20;;;;;;;0.63;0.30;;;;;;;6.45;37.05;102374.78;5604503;24;20053;-81
2021/04/25 10:52:28;;;;;;;13.07;1.48;;;;;;;6.46;39.40;102328.38;5091785;24;20092;-84
2021/04/25 10:57:56;;;;;;;9.73;0.85;;;;;;;6.59;36.33;102369.09;4885485;29;20022;-84
2021/04/25 11:00:31;;;;;;;1.23;0.40;;;;;;;6.72;38.22;102368.00;4998463;24;20053;-84
2021/04/25 11:03:07;;;;;;;0.68;0.30;;;;;;;5.59;37.34;102194.31;5116723;24;20631;-81
2021/04/25 11:05:35;;;;;;;0.98;0.20;;;;;;;6.61;38.25;102354.72;4827432;29;20031;-83
2021/04/25 11:08:03;;;;;;;1.27;0.20;;;;;;;5.21;38.42;102128.22;4829144;24;20092;-80
2021/04/25 11:10:45;;;;;;;1.83;0.22;;;;;;;6.52;37.44;102359.06;4806731;29;20019;-81
2021/04/25 11:13:49;;;;;;;0.32;0.10;;;;;;;5.44;37.83;102167.13;4820272;29;20049;-82
2021/04/25 11:16:16;;;;;;;1.15;0.22;;;;;;;6.14;38.38;102309.78;4793558;30;20027;-85
2021/04/25 11:18:58;;;;;;;0.30;0.10;;;;;;;6.21;39.48;102364.41;4807370;29;20031;-85
2021/04/25 11:21:50;;;;;;;0.73;0.20;;;;;;;6.48;39.00;102358.47;4845492;29;20035;-80
2021/04/25 11:24:15;;;;;;;0.98;0.28;;;;;;;6.73;37.72;102361.69;4839737;29;20465;-82
2021/04/25 11:26:47;;;;;;;0.68;0.20;;;;;;;6.62;37.11;102351.91;4830550;29;20091;-81
2021/04/25 11:29:16;;;;;;;1.17;0.20;;;;;;;6.49;36.07;102353.97;4815174;29;20034;-80
2021/04/25 11:32:03;;;;;;;0.77;0.20;;;;;;;6.70;36.70;102359.28;4805404;29;20042;-80
2021/04/25 11:34:32;;;;;;;2.77;0.30;;;;;;;6.63;36.05;102347.44;4860087;24;20061;-81
2021/04/25 11:37:24;;;;;;;0.85;0.30;;;;;;;5.08;36.57;101995.88;4820765;29;20054;-80
2021/04/25 11:39:57;;;;;;;2.92;0.28;;;;;;;7.12;35.07;102361.75;4810896;29;20454;-81
2021/04/25 11:42:50;;;;;;;1.65;0.20;;;;;;;7.05;38.98;102351.63;4800814;29;20087;-81
2021/04/25 11:45:20;;;;;;;0.57;0.20;;;;;;;7.02;40.46;102359.09;4825135;29;20445;-80
2021/04/25 11:47:47;;;;;;;1.00;0.22;;;;;;;6.86;39.83;102348.06;4846141;29;20103;-80
2021/04/25 11:50:14;;;;;;;0.68;0.20;;;;;;;6.78;39.69;102333.53;4828001;29;20029;-82
2021/04/25 11:52:40;;;;;;;1.38;0.30;;;;;;;6.82;39.77;102358.16;4827975;29;20132;-82
2021/04/25 11:55:08;;;;;;;0.57;0.20;;;;;;;6.88;38.89;102341.56;4813234;29;20039;-82
2021/04/25 11:57:37;;;;;;;0.93;0.32;;;;;;;6.83;38.56;102351.84;4812906;29;20022;-83
2021/04/25 12:00:24;;;;;;;3.28;0.40;;;;;;;6.84;37.39;102321.44;4846162;29;20038;-83
2021/04/25 12:02:55;;;;;;;2.28;0.30;;;;;;;7.29;39.14;102343.22;4840713;29;20042;-81
2021/04/25 12:05:22;;;;;;;0.43;0.13;;;;;;;7.49;37.66;102348.56;4839958;29;20038;-82
2021/04/25 12:07:57;;;;;;;0.60;0.10;;;;;;;7.36;37.13;102348.84;4846491;29;20058;-82
2021/04/25 12:10:41;;;;;;;0.32;0.20;;;;;;;6.89;37.02;102358.47;4847293;29;20094;-83
2021/04/25 12:13:19;;;;;;;0.75;0.20;;;;;;;6.55;37.80;102318.66;4841070;29;20031;-81
2021/04/25 12:16:05;;;;;;;1.60;0.30;;;;;;;6.74;36.41;102337.47;4815979;29;20077;-82
2021/04/25 12:18:37;;;;;;;0.68;0.22;;;;;;;6.83;33.91;102331.28;4814469;29;20030;-83
2021/04/25 12:21:06;;;;;;;2.47;0.40;;;;;;;6.97;34.32;102347.94;4841940;29;20058;-82
2021/04/25 12:23:37;;;;;;;0.65;0.22;;;;;;;6.72;34.46;102296.66;4826710;29;20007;-83
2021/04/25 12:26:09;;;;;;;0.77;0.20;;;;;;;7.22;34.66;102344.75;4828069;29;20035;-83
2021/04/25 12:28:58;;;;;;;0.60;0.10;;;;;;;7.08;36.39;102355.84;4824930;29;20066;-83
2021/04/25 12:31:26;;;;;;;3.42;0.47;;;;;;;6.77;41.46;102331.00;4840478;29;20053;-81
2021/04/25 12:33:56;;;;;;;1.90;0.45;;;;;;;6.64;43.41;102328.56;4826548;29;20035;-80
2021/04/25 12:36:29;;;;;;;3.95;0.73;;;;;;;6.54;45.65;102344.56;4806350;29;20162;-79
2021/04/25 12:38:59;;;;;;;3.45;0.70;;;;;;;6.52;48.44;102337.66;4829610;29;20037;-80
2021/04/25 12:41:36;;;;;;;5.20;1.08;;;;;;;6.39;48.83;102335.25;4814751;29;20030;-81
2021/04/25 12:44:02;;;;;;;3.20;0.40;;;;;;;6.04;47.61;102317.75;4815546;29;20129;-80
2021/04/25 12:46:28;;;;;;;3.45;0.70;;;;;;;6.34;47.25;102310.72;4830894;29;20046;-79
2021/04/25 12:48:59;;;;;;;3.05;0.55;;;;;;;6.22;46.68;102295.75;4820347;29;20121;-81
2021/04/25 12:51:43;;;;;;;2.72;0.68;;;;;;;6.29;46.37;102288.88;4823031;29;20126;-79
2021/04/25 12:54:17;;;;;;;3.08;0.60;;;;;;;6.50;45.20;102300.38;4839439;29;20098;-81
2021/04/25 12:56:46;;;;;;;3.75;0.70;;;;;;;6.58;45.24;102291.66;4816372;29;20385;-78
2021/04/25 12:59:11;;;;;;;2.78;0.50;;;;;;;6.45;46.75;102345.38;4832555;29;20071;-81
2021/04/25 13:01:55;;;;;;;1.63;0.40;;;;;;;6.38;47.29;102351.41;4834527;29;20034;-79
2021/04/25 13:04:43;;;;;;;1.30;0.43;;;;;;;6.29;46.43;102337.00;4832834;29;20129;-80
2021/04/25 13:07:23;;;;;;;5.90;0.70;;;;;;;6.52;45.65;102319.81;4836872;29;20041;-78
2021/04/25 13:09:55;;;;;;;2.65;0.38;;;;;;;6.65;46.13;102319.53;4839155;29;20121;-80
2021/04/25 13:12:21;;;;;;;3.53;0.75;;;;;;;6.71;46.87;102337.72;4837103;29;20041;-80
2021/04/25 13:15:11;;;;;;;2.08;0.60;;;;;;;6.75;47.12;102319.56;4835996;29;20026;-79
2021/04/25 13:17:42;;;;;;;2.75;0.63;;;;;;;6.64;45.28;102300.97;4836092;29;20083;-78
2021/04/25 13:20:25;;;;;;;2.17;0.80;;;;;;;6.21;47.96;102294.06;4843548;29;20022;-79
2021/04/25 13:23:09;;;;;;;3.45;0.63;;;;;;;6.13;47.04;102281.38;4832584;29;20026;-79
2021/04/25 13:25:58;;;;;;;4.07;0.93;;;;;;;6.40;49.10;102309.34;4819886;29;20026;-79
2021/04/25 13:28:27;;;;;;;4.93;1.35;;;;;;;6.50;49.33;102272.78;4831579;29;20035;-80
2021/04/25 13:30:58;;;;;;;4.38;0.75;;;;;;;6.51;47.81;102331.47;4803439;29;20034;-80
2021/04/25 13:33:27;;;;;;;3.90;0.80;;;;;;;6.55;49.08;102338.22;4819967;29;20050;-82
2021/04/25 13:35:53;;;;;;;3.75;0.60;;;;;;;6.25;46.49;102290.97;4800979;29;20065;-79
2021/04/25 13:38:22;;;;;;;2.70;0.60;;;;;;;6.44;45.94;102322.28;4831115;29;20528;-79
2021/04/25 13:41:04;;;;;;;2.72;0.40;;;;;;;6.24;44.86;102293.78;4829708;29;20046;-80
2021/04/25 13:43:30;;;;;;;5.43;0.98;;;;;;;6.15;47.20;102289.25;4815315;29;20038;-80
2021/04/25 13:45:55;;;;;;;3.50;0.50;;;;;;;6.17;47.32;102284.63;4804980;29;20066;-80
2021/04/25 13:48:21;;;;;;;2.90;0.45;;;;;;;6.31;46.43;102332.38;4841635;29;20034;-80
2021/04/25 13:50:47;;;;;;;3.88;0.90;;;;;;;6.07;50.05;102300.63;4839703;29;20034;-79
2021/04/25 13:53:13;;;;;;;3.53;0.70;;;;;;;6.16;49.47;102334.56;4822442;29;20034;-80
2021/04/25 13:55:41;;;;;;;3.40;0.60;;;;;;;6.36;48.23;102322.13;4822225;29;20480;-80
2021/04/25 13:58:06;;;;;;;8.07;1.30;;;;;;;6.38;49.81;102305.94;4822989;29;20026;-80
2021/04/25 14:00:34;;;;;;;3.60;0.93;;;;;;;6.36;48.01;102311.44;4808100;29;20022;-79
2021/04/25 14:03:01;;;;;;;1.33;0.50;;;;;;;6.21;48.49;102296.72;4835763;29;20034;-80
2021/04/25 14:05:28;;;;;;;5.93;0.80;;;;;;;6.17;47.54;102282.78;4837384;29;20034;-80
2021/04/25 14:07:53;;;;;;;3.85;0.77;;;;;;;6.39;50.77;102318.31;4798190;29;20476;-81
2021/04/25 14:10:22;;;;;;;3.17;0.60;;;;;;;6.46;47.38;102306.97;4826079;29;20034;-82
2021/04/25 14:12:50;;;;;;;3.47;0.65;;;;;;;6.50;46.69;102327.13;4828850;29;20038;-83
2021/04/25 14:15:18;;;;;;;3.42;0.70;;;;;;;6.59;46.92;102320.97;4820553;29;20049;-81
2021/04/25 14:17:45;;;;;;;2.97;0.60;;;;;;;6.68;47.23;102307.72;4827358;29;20042;-80
2021/04/25 14:20:11;;;;;;;1.45;0.40;;;;;;;6.74;45.65;102308.03;4841682;29;20045;-78
2021/04/25 14:22:37;;;;;;;2.97;0.40;;;;;;;6.70;45.12;102284.38;4844302;29;20042;-81
2021/04/25 14:25:03;;;;;;;2.55;0.47;;;;;;;6.99;44.45;102268.38;4833163;29;20049;-81
2021/04/25 14:27:29;;;;;;;1.58;0.40;;;;;;;6.92;46.01;102292.19;4844585;29;20015;-82
2021/04/25 14:29:54;;;;;;;2.30;0.45;;;;;;;6.89;44.45;102257.66;4843032;29;20104;-83
2021/04/25 14:32:21;;;;;;;1.38;0.25;;;;;;;7.09;43.78;102257.69;4827018;29;20507;-79
2021/04/25 14:34:46;;;;;;;1.63;0.50;;;;;;;7.10;43.64;102259.38;4823916;29;20130;-80
2021/04/25 14:37:11;;;;;;;2.90;0.45;;;;;;;6.97;46.34;102297.94;4824316;29;20118;-80
2021/04/25 14:39:37;;;;;;;3.35;0.77;;;;;;;6.81;45.13;102287.78;4822826;29;20041;-79
2021/04/25 14:42:03;;;;;;;4.10;0.73;;;;;;;6.95;46.16;102291.03;4818240;29;20043;-82
2021/04/25 14:44:29;;;;;;;1.98;0.43;;;;;;;6.72;45.50;102228.91;4833033;29;20078;-80
2021/04/25 14:46:55;;;;;;;3.10;0.60;;;;;;;6.75;46.00;102276.78;4818444;29;20073;-80
2021/04/25 14:51:56;;;;;;;2.25;0.50;;;;;;;6.51;43.90;102226.34;5097608;24;20062;-81
2021/04/25 14:54:24;;;;;;;1.67;0.30;;;;;;;6.89;42.09;102279.06;4841661;29;20044;-79
2021/04/25 14:56:49;;;;;;;3.78;0.57;;;;;;;6.10;43.16;102121.31;4819190;29;20037;-81
2021/04/25 14:59:16;;;;;;;2.95;0.68;;;;;;;7.01;44.97;102266.38;4837200;29;20014;-81
2021/04/25 15:01:41;;;;;;;1.60;0.43;;;;;;;6.99;45.24;102268.38;4859027;29;20034;-81
2021/04/25 15:04:07;;;;;;;2.17;0.50;;;;;;;6.89;43.01;102252.31;4827766;29;20106;-81
2021/04/25 15:06:33;;;;;;;4.55;0.52;;;;;;;6.74;46.59;102256.38;4820879;29;20097;-81
2021/04/25 15:11:33;;;;;;;2.72;0.60;;;;;;;4.91;45.47;101924.50;4982010;24;20039;-82
2021/04/25 15:13:59;;;;;;;1.65;0.50;;;;;;;6.85;45.30;102280.31;4827575;29;20090;-80
2021/04/25 15:16:25;;;;;;;2.80;0.98;;;;;;;5.07;46.71;101988.84;4853976;29;20132;-81
2021/04/25 15:18:51;;;;;;;2.35;0.45;;;;;;;5.63;45.43;102049.72;4835136;29;20077;-82
2021/04/25 15:21:18;;;;;;;1.55;0.30;;;;;;;7.16;42.48;102285.56;4826325;29;20034;-82
2021/04/25 15:23:44;;;;;;;3.15;0.57;;;;;;;6.14;43.03;102084.47;4824857;29;20039;-81
2021/04/25 15:26:10;;;;;;;1.90;0.40;;;;;;;6.33;41.23;102116.56;4853497;24;20171;-80
2021/04/25 15:28:37;;;;;;;1.50;0.43;;;;;;;6.87;43.91;102210.63;4815083;29;20030;-83
2021/04/25 15:31:05;;;;;;;2.63;0.30;;;;;;;6.31;41.65;102126.53;4791841;29;20039;-82
2021/04/25 15:33:31;;;;;;;1.27;0.32;;;;;;;6.10;43.06;102078.53;4810038;29;20026;-84
2021/04/25 15:35:57;;;;;;;3.30;0.60;;;;;;;5.11;43.25;101925.41;4821632;29;20034;-79
2021/04/25 15:38:23;;;;;;;2.50;0.50;;;;;;;6.62;44.14;102196.78;4825524;29;20037;-80
2021/04/25 15:40:49;;;;;;;3.20;0.35;;;;;;;6.92;43.28;102214.56;4808375;29;20043;-79
2021/04/25 15:43:15;;;;;;;0.93;0.30;;;;;;;7.21;42.75;102243.97;4761292;29;20031;-80
2021/04/25 15:45:44;;;;;;;5.55;0.80;;;;;;;7.30;45.50;102255.69;4777828;29;20035;-80
2021/04/25 15:48:13;;;;;;;5.35;1.00;;;;;;;7.18;51.41;102267.53;4796221;29;20034;-80
2021/04/25 15:50:39;;;;;;;6.95;0.90;;;;;;;7.15;50.96;102268.66;4806211;29;20035;-82
2021/04/25 15:53:05;;;;;;;6.78;0.93;;;;;;;7.08;51.00;102262.16;4804657;29;20041;-83
2021/04/25 15:55:32;;;;;;;8.65;0.82;;;;;;;6.64;51.13;102215.38;4801475;29;20500;-81
2021/04/25 15:58:04;;;;;;;4.10;0.77;;;;;;;6.85;51.65;102277.63;4815438;29;20095;-81
2021/04/25 16:00:31;;;;;;;5.55;0.80;;;;;;;6.82;50.25;102281.44;4796623;30;20039;-82
2021/04/25 16:03:16;;;;;;;7.53;0.90;;;;;;;6.82;51.31;102264.53;4779877;29;20069;-80
2021/04/25 16:05:42;;;;;;;4.28;0.75;;;;;;;6.59;52.49;102235.38;4779595;29;20138;-82
2021/04/25 16:08:08;;;;;;;6.05;0.70;;;;;;;6.75;51.83;102266.91;4781735;29;20103;-80
2021/04/25 16:10:39;;;;;;;8.75;0.85;;;;;;;6.15;51.29;102159.13;4764534;29;20038;-81
2021/04/25 16:13:08;;;;;;;5.93;0.80;;;;;;;6.40;50.65;102176.50;4793065;29;20031;-79
2021/04/25 16:15:34;;;;;;;5.03;1.15;;;;;;;6.77;52.97;102240.03;4780661;29;20373;-79
2021/04/25 16:18:00;;;;;;;5.13;1.00;;;;;;;6.86;51.25;102255.25;4781182;29;20071;-81
2021/04/25 16:20:25;;;;;;;6.50;1.10;;;;;;;7.03;52.37;102254.56;4810260;29;20130;-79